Domov               UVHVVR             MKGP            O straneh              
ZDRAVSTVENO VARSTVO RASTLIN
  MREŽA AGROMET. POSTAJ
 ► PROGNOSTIČNA OBVESTILA
AGROMETEOROLOŠKI PODATKI -
ARSO
OBVLADOVANJE TVEGANJ ZARADI
NEUGODNIH VREMENSKIH RAZMER
  ► NARAVNE NESREČE
  ► SUŠA/MOČA
  ► NAMAKANJE
  ► ŽLED (gozdarstvo)
KARTOGRAFSKI PRIKAZI
SPLETNE POVEZAVE
PROJEKTI IN PUBLIKACIJE

AGROMETEOROLOŠKA MREŽA: VREMENSKE POSTAJE IN FENOLOŠKA OPAZOVANJA

Pregled podatkov za lokacijo Gabernik-Rogaška, meteorološka postaja 37800

Pregled senzorjev na lokaciji

ID Ime Zadnja
vrednost
Datum in čas
zadnje
spremembe
(Lokalni čas)
Tip
senzorja
1828 Omočenost lista (U) 0 U 19.6.2019 13:00 A730WET
4946 Padavine (mm) 0 mm 19.6.2019 13:00 Generic 0.2 mm
1827 Relativna vlaga 2 m (% RH) 63.88 % RH 19.6.2019 13:00 50YA
1826 Temperatura 2 m (°C) 28.69 °C 19.6.2019 13:00 50YA

Pregled podatkov zadnjih 24 ur

Zap.
št.
Datum in čas
(Centralno
evropski čas)
Gabernik-Rogaška
Omočenost
lista
Padavine Relativna
vlaga
2
m
Temperatura
2
m
1 19.6.2019 13:00
2 19.6.2019 12:30
3 19.6.2019 12:00
4 19.6.2019 11:30 0 0 69.1 27.1
5 19.6.2019 11:00 0 0 71.6 26.3
6 19.6.2019 10:30 0 0 75.4 24.6
7 19.6.2019 10:00 0 0 79.8 23
8 19.6.2019 09:30 0 0 84.5 21.4
9 19.6.2019 09:00 0 0 85.6 20.5
10 19.6.2019 08:30 3 0 92.2 19.3
11 19.6.2019 08:00 6 0 98.7 18.2
12 19.6.2019 07:30 4 0 99.5 17.4
13 19.6.2019 07:00 4 0 99.4 16.6
14 19.6.2019 06:30 3 0 99 16.1
15 19.6.2019 06:00 1 0 98.7 16.1
16 19.6.2019 05:30 0 0 98.5 16.4
17 19.6.2019 05:00 0 0 97.9 16.5
18 19.6.2019 04:30 0 0 96.7 16.6
19 19.6.2019 04:00 0 0 95.6 17.3
20 19.6.2019 03:30 0 0 97.2 17.1
21 19.6.2019 03:00 0 0 97.1 17
22 19.6.2019 02:30 0 0 97 17
23 19.6.2019 02:00 0 0 96.4 17.2
24 19.6.2019 01:30 0 0 94.3 17.5
25 19.6.2019 01:00 0 0 90.4 18.3
26 19.6.2019 00:30 0 0 87 18.6
27 19.6.2019 00:00 0 0 85.1 18.6
28 18.6.2019 23:30 0 0 84.7 18.6
29 18.6.2019 23:00 0 0 83.2 18.7
30 18.6.2019 22:30 0 0 81.1 19.1
31 18.6.2019 22:00 0 0 82.3 19
32 18.6.2019 21:30 0 0 81.8 19.2
33 18.6.2019 21:00 0 0 82.5 19.4
34 18.6.2019 20:30 0 0 80.6 19.4
35 18.6.2019 20:00 0 0 82.2 19.6
36 18.6.2019 19:30 0 0 81.7 21.3
37 18.6.2019 19:00 0 0 87.7 21.1
38 18.6.2019 18:30 0 0 87.5 21.2
39 18.6.2019 18:00 0 0 88.8 21.5
40 18.6.2019 17:30 0 0 87.6 21.8
41 18.6.2019 17:00 0 0 88 22.1
42 18.6.2019 16:30 0 0 92.7 21.7
43 18.6.2019 16:00 2 0 92.3 21.2
44 18.6.2019 15:30 3 1.2 81.3 22.9
45 18.6.2019 15:00 0 0 72.4 25
46 18.6.2019 14:30 0 0 72.6 24.3
47 18.6.2019 14:00 0 0 72.7 24.8
48 18.6.2019 13:30 0 0 77.3 24
© 2011 Ministrstvo za kmetijstvo, gozdarstvo in prehrano. Vse pravice pridržane.